Time;durP1;ratioP1;P1;durP2;ratioP2;P2;SDS_P1;SDS_P2;PMS_P1;PMS_P2;Temp;Humidity;BMP_temperature;BMP_pressure;BME280_temperature;BME280_humidity;BME280_pressure;Samples;Min_cycle;Max_cycle;Signal;HPM_P1;HPM_P2
2023/04/15 00:00:03;;;;;;;12.25;6.93;;;7.90;42.70;;;;;;4991762;28;20403;-74
2023/04/15 00:02:29;;;;;;;17.20;7.90;;;7.70;44.70;;;;;;4991142;28;20378;-73
2023/04/15 00:04:55;;;;;;;14.38;7.53;;;7.50;46.50;;;;;;4991277;28;20441;-73
2023/04/15 00:07:21;;;;;;;15.85;7.57;;;7.60;48.10;;;;;;4991862;28;20394;-74
2023/04/15 00:09:46;;;;;;;19.38;8.50;;;7.60;48.30;;;;;;4991490;28;20393;-74
2023/04/15 00:12:12;;;;;;;15.38;8.00;;;7.50;47.00;;;;;;4991449;28;20794;-75
2023/04/15 00:14:38;;;;;;;19.30;7.95;;;7.40;48.20;;;;;;4991822;28;20394;-75
2023/04/15 00:17:03;;;;;;;15.60;8.00;;;7.70;47.70;;;;;;4992382;28;20490;-75
2023/04/15 00:19:30;;;;;;;14.13;7.70;;;7.50;47.80;;;;;;4991552;28;20417;-74
2023/04/15 00:21:56;;;;;;;17.88;8.02;;;7.60;47.60;;;;;;4991454;28;20697;-74
2023/04/15 00:24:22;;;;;;;13.10;8.53;;;7.60;47.70;;;;;;4991568;28;20497;-74
2023/04/15 00:26:48;;;;;;;12.27;8.40;;;7.40;47.90;;;;;;4991380;28;20548;-73
2023/04/15 00:29:14;;;;;;;18.23;8.80;;;7.50;47.50;;;;;;4991394;28;20453;-74
2023/04/15 00:31:41;;;;;;;18.30;9.10;;;7.40;47.50;;;;;;4990838;28;20406;-74
2023/04/15 00:34:06;;;;;;;16.67;8.85;;;7.40;48.50;;;;;;4991028;28;20394;-74
2023/04/15 00:36:33;;;;;;;12.65;7.93;;;7.60;47.80;;;;;;4990858;28;20405;-74
2023/04/15 00:38:59;;;;;;;15.60;9.00;;;7.60;46.90;;;;;;4991144;28;20411;-74
2023/04/15 00:41:25;;;;;;;17.00;9.00;;;7.60;46.60;;;;;;4990561;28;20528;-74
2023/04/15 00:43:51;;;;;;;19.30;8.40;;;7.60;47.10;;;;;;4991289;28;20809;-74
2023/04/15 00:46:20;;;;;;;15.70;8.60;;;7.70;46.20;;;;;;4991162;28;20465;-73
2023/04/15 00:48:46;;;;;;;14.00;8.33;;;7.70;45.70;;;;;;4991217;28;20390;-74
2023/04/15 00:51:12;;;;;;;19.65;9.18;;;7.70;45.10;;;;;;4990948;28;20517;-73
2023/04/15 00:53:38;;;;;;;17.92;8.80;;;7.60;47.80;;;;;;4991473;28;20437;-74
2023/04/15 00:56:04;;;;;;;17.60;9.00;;;7.50;48.10;;;;;;4991475;28;20390;-74
2023/04/15 00:58:30;;;;;;;18.45;8.80;;;7.40;49.10;;;;;;4990993;28;20406;-75
2023/04/15 01:00:56;;;;;;;17.05;8.68;;;7.40;49.70;;;;;;4990491;28;20395;-74
2023/04/15 01:03:21;;;;;;;18.95;8.65;;;7.30;48.30;;;;;;4990807;28;20469;-74
2023/04/15 01:05:48;;;;;;;14.35;8.25;;;7.10;51.00;;;;;;4990996;28;20469;-74
2023/04/15 01:08:14;;;;;;;15.57;8.20;;;6.90;51.80;;;;;;4992170;28;20440;-74
2023/04/15 01:10:39;;;;;;;18.67;8.67;;;7.00;51.50;;;;;;4994735;28;20752;-73
2023/04/15 01:13:05;;;;;;;16.17;8.60;;;7.00;50.20;;;;;;4994222;28;20429;-74
2023/04/15 01:15:31;;;;;;;15.77;8.70;;;7.10;49.80;;;;;;4994810;28;20944;-74
2023/04/15 01:18:02;;;;;;;14.00;8.50;;;7.10;49.40;;;;;;4994823;28;20440;-74
2023/04/15 01:20:28;;;;;;;16.10;9.05;;;6.90;51.00;;;;;;4994571;28;20433;-74
2023/04/15 01:22:54;;;;;;;18.35;9.68;;;6.70;52.60;;;;;;4994182;28;20394;-74
2023/04/15 01:25:32;;;;;;;14.80;8.30;;;6.60;54.20;;;;;;4994798;28;20745;-73
2023/04/15 01:27:58;;;;;;;16.17;8.65;;;6.50;55.60;;;;;;4996303;28;20424;-74
2023/04/15 01:30:25;;;;;;;15.98;8.93;;;6.60;55.40;;;;;;4994797;28;20657;-74
2023/04/15 01:32:51;;;;;;;15.85;7.65;;;6.90;52.10;;;;;;4994064;28;20756;-73
2023/04/15 01:35:17;;;;;;;14.00;7.85;;;7.10;49.70;;;;;;4994424;28;20386;-74
2023/04/15 01:37:43;;;;;;;14.95;7.93;;;7.30;47.90;;;;;;4994276;28;20858;-73
2023/04/15 01:40:08;;;;;;;15.38;7.70;;;7.40;48.00;;;;;;4994344;28;20391;-74
2023/04/15 01:42:36;;;;;;;17.90;8.73;;;7.30;46.60;;;;;;4999348;28;20390;-73
2023/04/15 01:45:02;;;;;;;15.45;9.23;;;7.00;50.30;;;;;;5000797;28;20387;-73
2023/04/15 01:47:28;;;;;;;13.82;9.18;;;6.80;53.20;;;;;;4997379;28;20731;-73
2023/04/15 01:49:53;;;;;;;19.50;9.30;;;6.60;54.40;;;;;;4994282;28;20390;-73
2023/04/15 01:52:19;;;;;;;16.92;10.18;;;6.50;56.10;;;;;;4993676;28;20889;-73
2023/04/15 01:54:45;;;;;;;15.55;7.80;;;6.40;59.20;;;;;;4994326;28;20802;-74
2023/04/15 01:57:11;;;;;;;20.37;8.50;;;6.80;55.70;;;;;;4994309;28;20438;-75
2023/04/15 01:59:37;;;;;;;17.08;7.90;;;7.10;52.30;;;;;;4994635;28;20444;-74
2023/04/15 02:02:03;;;;;;;15.40;8.00;;;7.20;50.80;;;;;;4993561;28;20751;-73
2023/04/15 02:04:29;;;;;;;16.38;8.50;;;7.00;51.40;;;;;;4993962;28;20378;-73
2023/04/15 02:06:54;;;;;;;16.85;9.00;;;7.00;52.60;;;;;;4993907;28;20386;-74
2023/04/15 02:09:20;;;;;;;20.48;8.93;;;6.90;53.30;;;;;;4976688;28;20387;-74
2023/04/15 02:11:45;;;;;;;14.70;8.80;;;6.90;53.10;;;;;;4993687;28;20451;-74
2023/04/15 02:14:11;;;;;;;14.40;8.80;;;7.00;52.10;;;;;;4994138;28;20394;-74
2023/04/15 02:16:37;;;;;;;15.60;8.13;;;6.90;51.70;;;;;;4976665;28;20395;-73
2023/04/15 02:19:03;;;;;;;14.43;8.60;;;6.80;52.30;;;;;;4978190;28;20402;-73
2023/04/15 02:21:29;;;;;;;14.75;8.75;;;6.60;53.70;;;;;;4995866;28;20387;-74
2023/04/15 02:23:55;;;;;;;14.90;8.47;;;6.40;55.50;;;;;;4977926;28;20449;-75
2023/04/15 02:26:21;;;;;;;13.93;8.40;;;6.10;58.30;;;;;;4995046;28;20418;-74
2023/04/15 02:28:47;;;;;;;17.70;9.45;;;6.00;59.80;;;;;;4994933;28;20382;-74
2023/04/15 02:31:13;;;;;;;18.55;9.35;;;6.00;61.50;;;;;;4994306;28;20398;-74
2023/04/15 02:33:39;;;;;;;15.57;8.87;;;6.00;61.80;;;;;;4995815;28;20930;-75
2023/04/15 02:36:05;;;;;;;15.00;8.50;;;6.30;58.90;;;;;;4995966;28;20386;-74
2023/04/15 02:38:31;;;;;;;18.70;9.30;;;6.50;57.00;;;;;;4993894;28;20437;-74
2023/04/15 02:40:56;;;;;;;14.35;8.82;;;6.40;55.90;;;;;;4992992;28;20426;-74
2023/04/15 02:43:22;;;;;;;17.55;8.63;;;6.20;58.60;;;;;;4993440;28;20390;-74
2023/04/15 02:45:48;;;;;;;12.38;8.20;;;6.40;56.90;;;;;;4992952;28;20432;-74
2023/04/15 02:48:15;;;;;;;16.83;8.70;;;6.40;57.90;;;;;;4993397;28;20390;-74
2023/04/15 02:50:41;;;;;;;21.40;9.80;;;6.50;57.70;;;;;;4993059;28;20383;-74
2023/04/15 02:53:06;;;;;;;22.00;9.50;;;6.40;57.30;;;;;;4992858;28;20689;-74
2023/04/15 02:55:32;;;;;;;21.50;9.90;;;6.10;59.80;;;;;;4992985;28;20426;-74
2023/04/15 02:57:59;;;;;;;17.50;10.07;;;5.80;62.90;;;;;;4993043;28;20406;-74
2023/04/15 03:00:25;;;;;;;16.90;9.95;;;5.80;65.20;;;;;;4993168;28;20386;-74
2023/04/15 03:02:55;;;;;;;16.67;9.20;;;5.80;67.40;;;;;;4992394;28;20418;-73
2023/04/15 03:05:23;;;;;;;16.55;9.68;;;6.00;63.40;;;;;;4992887;28;20390;-74
2023/04/15 03:07:49;;;;;;;15.32;9.75;;;5.80;64.40;;;;;;4992851;28;20398;-74
2023/04/15 03:10:14;;;;;;;16.27;9.80;;;5.60;66.40;;;;;;4993225;28;20407;-74
2023/04/15 03:12:40;;;;;;;17.13;9.80;;;5.70;66.90;;;;;;4975273;28;20399;-74
2023/04/15 03:15:07;;;;;;;17.53;10.30;;;5.60;68.20;;;;;;4993217;28;20944;-73
2023/04/15 03:17:32;;;;;;;17.50;9.40;;;5.60;68.90;;;;;;4975307;28;20413;-73
2023/04/15 03:19:58;;;;;;;20.15;9.90;;;5.80;67.30;;;;;;4992362;28;20391;-73
2023/04/15 03:22:24;;;;;;;13.80;8.90;;;6.20;62.90;;;;;;4991796;28;20387;-74
2023/04/15 03:24:49;;;;;;;15.70;9.10;;;6.00;61.90;;;;;;4992365;28;20397;-74
2023/04/15 03:27:15;;;;;;;17.20;10.07;;;5.70;65.60;;;;;;4993441;28;20469;-74
2023/04/15 03:29:40;;;;;;;20.80;9.90;;;5.60;68.50;;;;;;4992269;28;20390;-74
2023/04/15 03:32:08;;;;;;;15.98;9.02;;;6.10;65.40;;;;;;5005669;23;20457;-72
2023/04/15 03:34:33;;;;;;;14.40;9.30;;;6.30;61.50;;;;;;4996312;28;20394;-72
2023/04/15 03:36:59;;;;;;;14.50;9.70;;;6.00;63.40;;;;;;4994821;28;20414;-73
2023/04/15 03:39:24;;;;;;;15.17;9.63;;;6.10;65.20;;;;;;4997732;28;20866;-71
2023/04/15 03:41:50;;;;;;;18.90;9.23;;;6.10;64.10;;;;;;5004420;28;20390;-71
2023/04/15 03:44:15;;;;;;;16.77;9.63;;;6.20;63.50;;;;;;5013668;28;20448;-72
2023/04/15 03:46:41;;;;;;;16.40;10.60;;;6.20;62.90;;;;;;4998182;28;20390;-72
2023/04/15 03:49:07;;;;;;;15.77;9.30;;;5.90;63.90;;;;;;4994816;28;20394;-71
2023/04/15 03:51:32;;;;;;;13.93;8.88;;;5.80;66.50;;;;;;4995050;28;20406;-73
2023/04/15 03:53:58;;;;;;;15.93;9.30;;;6.00;66.80;;;;;;4996406;28;20901;-71
2023/04/15 03:56:24;;;;;;;17.00;9.43;;;6.30;63.90;;;;;;4996894;28;20930;-71
2023/04/15 03:58:49;;;;;;;16.45;8.27;;;6.40;62.10;;;;;;4997520;28;20976;-72
2023/04/15 04:01:15;;;;;;;19.03;9.60;;;6.10;63.70;;;;;;4998422;28;20820;-74
2023/04/15 04:03:41;;;;;;;15.10;9.20;;;6.00;64.60;;;;;;4996726;28;20868;-73
2023/04/15 04:06:07;;;;;;;18.30;9.38;;;6.00;66.10;;;;;;4994733;28;20390;-73
2023/04/15 04:08:32;;;;;;;14.52;9.73;;;6.30;63.30;;;;;;4993812;28;20398;-74
2023/04/15 04:10:58;;;;;;;14.20;9.97;;;6.20;63.40;;;;;;4993762;28;20517;-73
2023/04/15 04:13:24;;;;;;;14.50;9.27;;;6.10;64.30;;;;;;4994694;28;20481;-73
2023/04/15 04:15:49;;;;;;;17.47;10.40;;;5.80;65.90;;;;;;4994266;28;20402;-74
2023/04/15 04:18:15;;;;;;;15.77;9.50;;;5.90;67.70;;;;;;4994732;28;20442;-72
2023/04/15 04:20:40;;;;;;;16.67;10.27;;;6.10;65.40;;;;;;4993512;28;20394;-71
2023/04/15 04:23:06;;;;;;;20.55;10.45;;;6.00;64.10;;;;;;4993782;28;20389;-71
2023/04/15 04:25:32;;;;;;;16.60;9.30;;;6.00;66.60;;;;;;4996948;28;20414;-73
2023/04/15 04:27:58;;;;;;;21.50;9.93;;;6.00;62.80;;;;;;4997482;28;20393;-72
2023/04/15 04:30:23;;;;;;;20.45;10.00;;;5.90;65.60;;;;;;4995717;28;20394;-72
2023/04/15 04:32:50;;;;;;;17.60;9.63;;;5.80;66.50;;;;;;4995529;28;20406;-73
2023/04/15 04:35:16;;;;;;;13.48;9.68;;;5.90;64.60;;;;;;4996683;28;20450;-73
2023/04/15 04:37:41;;;;;;;16.05;10.00;;;6.00;63.40;;;;;;4997077;28;20497;-72
2023/04/15 04:40:08;;;;;;;17.25;9.85;;;6.10;63.30;;;;;;4980145;28;20484;-72
2023/04/15 04:42:34;;;;;;;18.40;9.75;;;6.30;61.80;;;;;;5002438;28;20382;-72
2023/04/15 04:44:59;;;;;;;15.48;10.80;;;6.30;60.40;;;;;;5002723;28;20385;-74
2023/04/15 04:47:25;;;;;;;15.97;9.80;;;6.00;61.80;;;;;;4992847;28;20394;-74
2023/04/15 04:49:50;;;;;;;17.80;10.90;;;5.70;65.90;;;;;;4993194;28;20486;-72
2023/04/15 04:52:16;;;;;;;21.40;11.17;;;5.80;67.50;;;;;;4992734;28;20391;-73
2023/04/15 04:54:41;;;;;;;18.03;11.00;;;6.00;63.90;;;;;;4994828;28;20470;-74
2023/04/15 04:57:07;;;;;;;21.17;10.87;;;5.90;64.50;;;;;;4994151;28;20441;-73
2023/04/15 04:59:33;;;;;;;23.03;11.50;;;5.70;68.30;;;;;;4994040;28;20469;-73
2023/04/15 05:01:58;;;;;;;18.53;10.43;;;5.70;67.80;;;;;;4993999;28;20390;-73
2023/04/15 05:04:25;;;;;;;21.20;10.90;;;5.70;69.90;;;;;;4993848;28;20693;-73
2023/04/15 05:06:50;;;;;;;19.55;10.98;;;5.80;66.90;;;;;;4978620;28;20685;-73
2023/04/15 05:09:16;;;;;;;19.13;11.27;;;5.60;69.30;;;;;;4998908;28;20398;-73
2023/04/15 05:11:41;;;;;;;20.27;10.80;;;6.00;67.00;;;;;;4995729;28;20402;-74
2023/04/15 05:14:07;;;;;;;15.67;10.97;;;6.10;63.80;;;;;;4994281;28;20469;-73
2023/04/15 05:16:32;;;;;;;17.63;11.40;;;6.30;61.60;;;;;;4993490;28;20398;-74
2023/04/15 05:18:58;;;;;;;20.93;11.47;;;6.30;60.90;;;;;;4993278;28;20406;-74
2023/04/15 05:21:24;;;;;;;24.70;11.40;;;6.30;60.40;;;;;;4992883;28;20392;-74
2023/04/15 05:23:50;;;;;;;17.10;11.25;;;6.30;61.20;;;;;;4994182;28;20391;-73
2023/04/15 05:26:16;;;;;;;17.27;11.50;;;6.20;62.80;;;;;;4993012;28;20394;-72
2023/04/15 05:28:42;;;;;;;21.90;12.90;;;6.00;64.70;;;;;;4993839;28;20426;-74
2023/04/15 05:31:07;;;;;;;22.83;12.20;;;5.90;68.20;;;;;;4994173;28;20393;-73
2023/04/15 05:33:33;;;;;;;21.73;12.60;;;5.80;69.40;;;;;;4994326;28;20465;-74
2023/04/15 05:35:59;;;;;;;23.97;12.40;;;5.80;71.10;;;;;;4995842;28;20428;-74
2023/04/15 05:38:25;;;;;;;21.50;12.80;;;5.90;70.80;;;;;;4994935;28;20510;-73
2023/04/15 05:40:50;;;;;;;21.30;12.57;;;6.10;70.20;;;;;;4994546;28;20412;-72
2023/04/15 05:43:16;;;;;;;19.92;12.77;;;6.30;66.60;;;;;;4997455;28;20397;-73
2023/04/15 05:45:41;;;;;;;18.00;12.77;;;6.40;65.90;;;;;;4995590;28;20736;-73
2023/04/15 05:48:07;;;;;;;23.02;12.65;;;6.60;65.20;;;;;;4994582;28;20391;-73
2023/04/15 05:50:32;;;;;;;24.48;12.90;;;7.10;59.90;;;;;;4995174;28;20402;-72
2023/04/15 05:52:59;;;;;;;22.42;13.15;;;7.40;56.50;;;;;;4995596;28;20405;-74
2023/04/15 05:55:24;;;;;;;20.65;12.75;;;7.70;55.00;;;;;;4982213;28;20394;-73
2023/04/15 05:57:50;;;;;;;20.23;13.10;;;7.80;53.70;;;;;;4998825;28;20767;-72
2023/04/15 06:00:15;;;;;;;25.00;13.90;;;7.90;53.00;;;;;;4998621;28;20397;-74
2023/04/15 06:02:41;;;;;;;21.10;13.80;;;8.00;52.60;;;;;;4999717;28;20406;-74
2023/04/15 06:05:10;;;;;;;18.70;13.00;;;8.10;52.70;;;;;;4986250;28;20836;-74
2023/04/15 06:07:37;;;;;;;23.27;14.40;;;8.10;52.10;;;;;;4994917;28;20470;-74
2023/04/15 06:10:03;;;;;;;24.27;15.02;;;8.20;52.40;;;;;;5003138;28;20421;-73
2023/04/15 06:12:29;;;;;;;25.88;14.60;;;8.30;52.70;;;;;;5000244;28;20860;-73
2023/04/15 06:14:55;;;;;;;24.50;14.87;;;8.40;52.80;;;;;;5002141;28;20397;-74
2023/04/15 06:17:20;;;;;;;25.23;16.00;;;8.50;52.70;;;;;;5008576;28;20440;-72
2023/04/15 06:19:46;;;;;;;28.13;16.13;;;8.60;52.80;;;;;;5009591;28;20796;-73
2023/04/15 06:22:12;;;;;;;21.38;15.73;;;8.70;52.20;;;;;;5002008;28;20657;-73
2023/04/15 06:24:37;;;;;;;22.65;15.07;;;8.90;51.90;;;;;;4996818;28;20390;-72
2023/04/15 06:27:03;;;;;;;28.90;15.80;;;9.00;51.40;;;;;;5000989;28;20406;-72
2023/04/15 06:29:28;;;;;;;26.30;15.35;;;9.10;51.30;;;;;;5001348;28;20398;-72
2023/04/15 06:31:55;;;;;;;20.00;14.75;;;9.30;50.30;;;;;;5000784;28;20529;-73
2023/04/15 06:34:21;;;;;;;22.50;14.70;;;9.40;49.60;;;;;;4984196;28;20406;-71
2023/04/15 06:36:47;;;;;;;21.08;15.10;;;9.50;48.90;;;;;;5005755;28;20417;-74
2023/04/15 06:39:12;;;;;;;21.42;13.90;;;9.60;48.20;;;;;;5002133;28;20395;-74
2023/04/15 06:41:38;;;;;;;25.40;13.93;;;9.70;47.40;;;;;;5001174;28;20406;-75
2023/04/15 06:44:04;;;;;;;21.20;13.40;;;9.80;47.00;;;;;;5000970;28;20398;-74
2023/04/15 06:46:30;;;;;;;21.85;14.00;;;9.90;46.80;;;;;;5001511;28;20414;-73
2023/04/15 06:48:56;;;;;;;21.55;12.43;;;10.10;46.60;;;;;;4985170;28;20425;-73
2023/04/15 06:51:22;;;;;;;19.33;12.68;;;10.30;44.90;;;;;;5000632;28;20803;-72
2023/04/15 06:53:48;;;;;;;16.67;12.48;;;10.50;43.90;;;;;;4987193;28;20382;-72
2023/04/15 06:56:14;;;;;;;16.80;12.30;;;10.80;43.10;;;;;;4994596;28;20410;-71
2023/04/15 06:58:39;;;;;;;18.33;12.87;;;10.90;41.40;;;;;;4985032;28;20418;-71
2023/04/15 07:01:05;;;;;;;16.60;11.60;;;11.10;41.10;;;;;;5003253;28;20386;-71
2023/04/15 07:03:31;;;;;;;16.33;11.60;;;11.30;40.40;;;;;;5004148;28;20391;-72
2023/04/15 07:05:57;;;;;;;17.20;11.55;;;11.50;38.80;;;;;;4998211;28;20400;-72
2023/04/15 07:08:23;;;;;;;19.17;12.50;;;11.70;37.20;;;;;;4986325;28;20416;-72
2023/04/15 07:10:48;;;;;;;21.63;11.57;;;11.80;36.70;;;;;;4983447;28;20446;-73
2023/04/15 07:13:14;;;;;;;14.25;10.45;;;11.90;34.90;;;;;;4991091;28;20475;-73
2023/04/15 07:15:40;;;;;;;17.23;10.30;;;11.90;34.30;;;;;;5007440;28;20486;-73
2023/04/15 07:18:05;;;;;;;16.23;11.10;;;11.70;33.60;;;;;;5010792;28;20418;-76
2023/04/15 07:20:31;;;;;;;19.50;11.93;;;11.80;35.30;;;;;;5014057;28;20394;-76
2023/04/15 07:22:57;;;;;;;19.73;12.60;;;11.90;34.80;;;;;;4992649;28;20398;-76
2023/04/15 07:25:22;;;;;;;16.60;12.10;;;12.10;34.20;;;;;;5004768;28;20461;-77
2023/04/15 07:27:48;;;;;;;16.02;11.20;;;12.20;32.90;;;;;;5005140;28;20966;-77
2023/04/15 07:30:14;;;;;;;17.45;10.80;;;12.30;32.00;;;;;;5004250;28;20430;-76
2023/04/15 07:32:40;;;;;;;14.80;10.70;;;12.10;32.30;;;;;;5006142;28;20406;-72
2023/04/15 07:35:06;;;;;;;17.25;10.52;;;12.10;32.50;;;;;;4996978;28;20398;-75
2023/04/15 07:37:32;;;;;;;15.02;10.40;;;12.20;31.30;;;;;;4999849;28;20418;-74
2023/04/15 07:39:58;;;;;;;18.05;11.55;;;12.00;32.50;;;;;;4999051;28;20393;-75
2023/04/15 07:42:23;;;;;;;19.00;11.30;;;12.10;31.90;;;;;;4998870;28;20403;-75
2023/04/15 07:44:49;;;;;;;13.15;9.75;;;12.10;31.00;;;;;;4999170;28;20497;-74
2023/04/15 07:47:15;;;;;;;25.08;13.38;;;12.30;30.60;;;;;;4994357;28;20458;-74
2023/04/15 07:49:42;;;;;;;14.87;10.00;;;12.40;30.10;;;;;;4993716;28;20492;-73
2023/04/15 07:52:07;;;;;;;12.73;8.43;;;12.40;28.70;;;;;;4976604;28;20410;-75
2023/04/15 07:54:33;;;;;;;13.73;7.97;;;12.00;28.30;;;;;;4990639;28;20407;-72
2023/04/15 07:56:59;;;;;;;11.67;8.57;;;11.70;30.10;;;;;;4980116;28;20504;-72
2023/04/15 07:59:26;;;;;;;11.13;7.28;;;11.80;30.30;;;;;;4992704;28;20395;-75
2023/04/15 08:01:52;;;;;;;10.85;7.30;;;11.80;29.20;;;;;;4997684;28;20759;-75
2023/04/15 08:04:17;;;;;;;11.68;8.30;;;11.80;29.00;;;;;;4997195;28;20449;-73
2023/04/15 08:06:43;;;;;;;17.73;9.23;;;11.90;29.10;;;;;;4995797;28;20390;-73
2023/04/15 08:09:09;;;;;;;12.10;8.50;;;12.20;28.70;;;;;;4996163;28;20420;-75
2023/04/15 08:11:35;;;;;;;17.83;11.27;;;12.40;27.60;;;;;;4981357;28;20467;-74
2023/04/15 08:14:01;;;;;;;15.40;9.20;;;12.60;28.30;;;;;;4958628;28;20483;-74
2023/04/15 08:16:27;;;;;;;14.80;9.00;;;12.90;26.80;;;;;;4975127;28;20519;-74
2023/04/15 08:18:53;;;;;;;9.70;7.10;;;13.20;25.90;;;;;;4976801;28;20531;-75
2023/04/15 08:21:19;;;;;;;10.68;7.65;;;13.00;23.70;;;;;;4989009;28;20410;-73
2023/04/15 08:23:48;;;;;;;10.23;7.30;;;12.90;24.40;;;;;;4997809;28;20389;-75
2023/04/15 08:26:13;;;;;;;10.60;7.53;;;12.50;25.30;;;;;;5001797;28;20759;-73
2023/04/15 08:28:40;;;;;;;10.68;7.78;;;12.50;26.00;;;;;;5001325;28;20386;-74
2023/04/15 08:31:06;;;;;;;11.20;7.80;;;12.60;26.10;;;;;;4999909;28;20448;-73
2023/04/15 08:33:32;;;;;;;9.70;7.07;;;12.90;25.70;;;;;;5000676;28;20406;-76
2023/04/15 08:35:58;;;;;;;7.60;6.00;;;13.20;24.50;;;;;;4999166;28;20406;-73
2023/04/15 08:38:23;;;;;;;11.40;6.40;;;12.90;23.90;;;;;;5000402;28;20418;-72
2023/04/15 08:40:49;;;;;;;11.27;6.97;;;12.50;25.20;;;;;;5000984;28;20398;-74
2023/04/15 08:43:27;;;;;;;10.02;7.28;;;12.40;25.70;;;;;;4985560;28;20454;-74
2023/04/15 08:45:53;;;;;;;9.43;6.95;;;12.40;26.60;;;;;;4983178;28;20406;-73
2023/04/15 08:48:21;;;;;;;10.43;7.80;;;12.30;26.00;;;;;;4996321;28;20406;-72
2023/04/15 08:50:47;;;;;;;9.20;7.03;;;12.40;26.90;;;;;;4988483;28;20394;-69
2023/04/15 08:53:14;;;;;;;11.32;7.00;;;12.70;26.00;;;;;;4959065;28;20920;-72
2023/04/15 08:55:45;;;;;;;10.73;7.60;;;13.00;25.00;;;;;;4983442;28;20404;-74
2023/04/15 08:58:12;;;;;;;10.55;7.10;;;13.20;24.40;;;;;;4975806;28;20912;-71
2023/04/15 09:00:39;;;;;;;11.90;7.03;;;13.40;23.50;;;;;;4975034;28;20392;-72
2023/04/15 09:03:06;;;;;;;9.60;8.10;;;13.50;23.00;;;;;;4974425;28;20380;-73
2023/04/15 09:05:33;;;;;;;11.93;7.50;;;13.40;23.00;;;;;;4973620;28;20481;-73
2023/04/15 09:07:59;;;;;;;14.43;8.95;;;13.40;22.70;;;;;;4982041;28;20416;-73
2023/04/15 09:10:25;;;;;;;11.23;7.20;;;13.30;23.80;;;;;;4995253;28;20513;-72
2023/04/15 09:12:50;;;;;;;10.00;7.20;;;13.20;23.50;;;;;;4976297;28;20434;-73
2023/04/15 09:15:16;;;;;;;10.70;7.60;;;13.40;23.10;;;;;;4995613;28;20406;-73
2023/04/15 09:17:45;;;;;;;10.30;7.20;;;13.30;23.20;;;;;;4997459;28;20527;-75
2023/04/15 09:20:13;;;;;;;10.15;6.95;;;13.50;23.20;;;;;;5001720;28;20390;-72
2023/04/15 09:22:41;;;;;;;10.02;7.35;;;13.70;21.80;;;;;;4982997;28;20413;-72
2023/04/15 09:25:21;;;;;;;7.15;5.70;;;13.90;22.20;;;;;;5003443;28;20399;-72
2023/04/15 09:27:48;;;;;;;5.30;4.10;;;13.80;21.00;;;;;;4985993;28;20397;-72
2023/04/15 09:30:14;;;;;;;4.00;3.17;;;13.20;21.50;;;;;;4984149;28;20763;-73
2023/04/15 09:32:57;;;;;;;5.32;3.80;;;13.10;21.20;;;;;;5016228;23;20434;-76
2023/04/15 09:35:25;;;;;;;3.95;3.38;;;13.10;21.50;;;;;;5009811;28;20434;-75
2023/04/15 09:37:51;;;;;;;5.00;2.90;;;12.90;21.70;;;;;;5008072;28;20453;-75
2023/04/15 09:40:39;;;;;;;3.65;3.35;;;13.00;22.20;;;;;;5006174;28;20400;-73
2023/04/15 09:43:06;;;;;;;5.13;3.55;;;13.10;22.60;;;;;;5003740;28;20790;-73
2023/04/15 09:45:33;;;;;;;5.50;3.70;;;13.40;22.10;;;;;;5007964;28;20394;-74
2023/04/15 09:48:25;;;;;;;3.75;3.45;;;13.70;21.10;;;;;;5001133;28;20391;-74
2023/04/15 09:50:52;;;;;;;6.30;3.85;;;13.60;20.60;;;;;;4998864;28;20374;-76
2023/04/15 09:53:23;;;;;;;3.70;2.90;;;13.50;21.70;;;;;;5000356;28;20429;-73
2023/04/15 09:55:55;;;;;;;5.45;4.00;;;13.40;22.20;;;;;;4998468;28;20390;-74
2023/04/15 09:58:23;;;;;;;6.00;3.60;;;13.50;21.70;;;;;;5008791;28;20409;-73
2023/04/15 10:00:50;;;;;;;4.28;3.50;;;13.30;21.50;;;;;;5003265;28;20458;-76
2023/04/15 10:03:24;;;;;;;4.70;3.80;;;13.00;22.50;;;;;;5003191;28;20390;-75
2023/04/15 10:05:51;;;;;;;6.40;3.70;;;13.10;22.70;;;;;;5008337;28;20402;-73
2023/04/15 10:08:19;;;;;;;5.50;3.90;;;13.30;22.90;;;;;;5006463;28;20430;-72
2023/04/15 10:10:46;;;;;;;6.00;3.87;;;13.70;21.70;;;;;;5008514;28;20437;-73
2023/04/15 10:13:21;;;;;;;5.03;4.38;;;13.60;22.30;;;;;;5013068;28;20445;-73
2023/04/15 10:16:10;;;;;;;5.63;4.20;;;13.80;22.20;;;;;;5014860;28;20394;-75
2023/04/15 10:18:46;;;;;;;4.97;4.47;;;13.70;21.30;;;;;;5001798;28;20426;-75
2023/04/15 10:21:14;;;;;;;7.50;5.22;;;13.60;22.10;;;;;;5013890;28;20498;-75
2023/04/15 10:23:40;;;;;;;7.78;7.05;;;13.90;22.10;;;;;;5014159;28;20447;-74
2023/04/15 10:26:06;;;;;;;8.75;7.20;;;14.20;21.00;;;;;;5012144;28;20432;-76
2023/04/15 10:28:31;;;;;;;10.63;6.63;;;14.30;21.40;;;;;;5013060;28;20390;-76
2023/04/15 10:30:58;;;;;;;7.13;6.30;;;14.20;21.10;;;;;;5012028;28;20379;-75
2023/04/15 10:33:24;;;;;;;8.02;5.90;;;14.20;22.00;;;;;;5012123;28;20398;-75
2023/04/15 10:35:51;;;;;;;8.85;6.47;;;13.90;22.30;;;;;;5012056;28;20375;-75
2023/04/15 10:38:33;;;;;;;9.68;5.88;;;13.90;22.70;;;;;;5012249;28;20406;-76
2023/04/15 10:41:26;;;;;;;6.35;5.75;;;14.00;22.40;;;;;;5006342;28;20398;-75
2023/04/15 10:43:55;;;;;;;6.00;5.40;;;13.90;22.80;;;;;;5013328;28;20386;-77
2023/04/15 10:46:24;;;;;;;9.48;5.32;;;13.70;23.40;;;;;;5011323;28;20391;-76
2023/04/15 10:48:52;;;;;;;5.38;4.88;;;13.80;23.80;;;;;;5014276;28;20457;-75
2023/04/15 10:51:31;;;;;;;5.82;4.65;;;13.70;23.20;;;;;;5013878;28;20450;-76
2023/04/15 10:54:00;;;;;;;5.47;4.70;;;13.50;23.90;;;;;;5012250;28;20406;-75
2023/04/15 10:56:28;;;;;;;6.95;5.15;;;13.40;24.30;;;;;;5014412;28;20394;-76
2023/04/15 10:58:54;;;;;;;7.37;5.37;;;13.40;25.70;;;;;;5008816;28;20436;-76
2023/04/15 11:01:22;;;;;;;6.25;5.30;;;13.50;25.90;;;;;;5007745;28;20390;-76
2023/04/15 11:03:47;;;;;;;7.25;5.28;;;13.60;25.80;;;;;;4999407;28;20913;-76
2023/04/15 11:06:13;;;;;;;4.72;3.83;;;13.70;25.90;;;;;;5000862;28;20397;-76
2023/04/15 11:09:01;;;;;;;7.20;4.00;;;13.80;24.80;;;;;;5004407;28;20397;-75
2023/04/15 11:12:08;;;;;;;3.85;3.40;;;13.50;25.00;;;;;;5003277;28;20428;-75
2023/04/15 11:14:40;;;;;;;4.40;4.00;;;13.50;25.50;;;;;;5003136;28;20399;-74
2023/04/15 11:17:05;;;;;;;4.80;3.88;;;13.90;24.90;;;;;;5001896;28;20807;-75
2023/04/15 11:19:38;;;;;;;5.10;4.00;;;13.90;24.70;;;;;;5005475;28;20496;-75
2023/04/15 11:22:10;;;;;;;4.40;3.90;;;14.00;24.40;;;;;;5002075;28;20386;-76
2023/04/15 11:24:45;;;;;;;5.53;4.30;;;14.00;24.70;;;;;;5004487;28;20387;-75
2023/04/15 11:27:22;;;;;;;4.90;4.43;;;14.10;24.80;;;;;;5005940;28;20406;-75
2023/04/15 11:29:48;;;;;;;6.32;4.45;;;13.80;25.20;;;;;;5004378;28;20402;-76
2023/04/15 11:32:13;;;;;;;5.50;4.57;;;13.60;25.90;;;;;;5003155;28;20402;-76
2023/04/15 11:34:39;;;;;;;7.72;5.40;;;13.50;27.00;;;;;;5004833;28;20395;-75
2023/04/15 11:37:05;;;;;;;8.02;5.72;;;13.40;27.10;;;;;;5007661;28;20407;-75
2023/04/15 11:39:31;;;;;;;8.38;6.10;;;13.20;28.30;;;;;;5008047;28;20438;-77
2023/04/15 11:41:56;;;;;;;8.97;5.50;;;13.00;29.30;;;;;;5004551;28;20382;-75
2023/04/15 11:44:22;;;;;;;9.30;6.00;;;13.00;29.90;;;;;;5005984;28;20390;-75
2023/04/15 11:46:48;;;;;;;7.30;4.80;;;13.30;29.40;;;;;;5004499;28;20485;-74
2023/04/15 11:49:30;;;;;;;7.60;4.70;;;13.20;28.90;;;;;;5007940;28;20510;-75
2023/04/15 11:51:55;;;;;;;5.70;4.90;;;13.20;28.20;;;;;;5008233;28;20405;-74
2023/04/15 11:54:21;;;;;;;5.70;4.60;;;13.20;28.40;;;;;;5007411;28;20530;-76
2023/04/15 11:56:51;;;;;;;5.37;4.20;;;13.30;27.50;;;;;;5007796;28;20400;-75
2023/04/15 11:59:17;;;;;;;5.35;4.40;;;13.30;28.70;;;;;;5003645;28;20390;-75
2023/04/15 12:01:45;;;;;;;5.30;4.30;;;13.00;28.90;;;;;;5000439;28;20387;-75
2023/04/15 12:04:12;;;;;;;6.25;4.97;;;13.00;29.00;;;;;;5001722;28;20897;-75
2023/04/15 12:06:37;;;;;;;6.38;4.75;;;12.60;30.80;;;;;;5001699;28;20425;-75
2023/04/15 12:09:09;;;;;;;5.75;4.60;;;12.50;31.50;;;;;;5004389;28;20422;-76
2023/04/15 12:11:50;;;;;;;6.93;5.22;;;12.60;31.50;;;;;;5004708;28;20375;-76
2023/04/15 12:14:16;;;;;;;8.57;4.70;;;12.50;31.40;;;;;;5008704;28;20387;-74
2023/04/15 12:17:12;;;;;;;7.38;5.10;;;12.50;31.80;;;;;;5012050;28;20420;-75
2023/04/15 12:19:42;;;;;;;4.95;4.00;;;12.50;31.50;;;;;;5008180;28;20446;-76
2023/04/15 12:22:12;;;;;;;5.45;4.13;;;12.70;30.30;;;;;;5009856;28;20410;-75
2023/04/15 12:24:39;;;;;;;8.13;4.47;;;13.00;29.10;;;;;;5009227;28;20377;-75
2023/04/15 12:27:06;;;;;;;5.50;4.60;;;12.90;28.80;;;;;;5008570;28;20425;-75
2023/04/15 12:29:33;;;;;;;7.03;5.03;;;13.00;29.20;;;;;;5001253;28;20383;-75
2023/04/15 12:32:08;;;;;;;6.83;4.10;;;12.90;28.90;;;;;;5001487;28;20402;-75
2023/04/15 12:34:35;;;;;;;4.45;4.05;;;12.80;29.20;;;;;;4996506;28;20426;-74
2023/04/15 12:37:02;;;;;;;5.57;4.30;;;12.80;28.70;;;;;;5000081;28;20394;-75
2023/04/15 12:39:31;;;;;;;6.13;4.25;;;13.00;28.10;;;;;;5000321;28;20403;-76
2023/04/15 12:41:58;;;;;;;4.87;3.80;;;13.00;28.40;;;;;;4999688;28;20471;-75